Time;durP1;ratioP1;P1;durP2;ratioP2;P2;SDS_P1;SDS_P2;PMS_P1;PMS_P2;Temp;Humidity;BMP_temperature;BMP_pressure;BME280_temperature;BME280_humidity;BME280_pressure;Samples;Min_cycle;Max_cycle;Signal;HPM_P1;HPM_P2
2022/04/08 00:01:55;;;;;;;2.38;2.17;;;;;;;9.20;76.58;92141.25;5070227;28;20052;-53
2022/04/08 00:04:21;;;;;;;3.70;2.58;;;;;;;9.16;76.80;92150.66;5086957;28;20397;-53
2022/04/08 00:06:46;;;;;;;2.88;2.53;;;;;;;9.17;77.13;92148.63;5093101;28;20047;-53
2022/04/08 00:09:11;;;;;;;2.85;2.50;;;;;;;9.16;76.78;92153.41;5090464;28;20043;-54
2022/04/08 00:11:37;;;;;;;2.72;1.98;;;;;;;9.21;76.36;92157.19;5110595;28;20020;-52
2022/04/08 00:14:04;;;;;;;4.97;2.38;;;;;;;9.21;76.30;92154.44;5095394;28;20020;-58
2022/04/08 00:16:29;;;;;;;3.92;2.50;;;;;;;9.13;76.93;92168.31;5090103;28;20028;-57
2022/04/08 00:18:55;;;;;;;4.78;2.78;;;;;;;9.11;77.02;92170.91;5090027;28;20031;-56
2022/04/08 00:21:23;;;;;;;9.20;2.75;;;;;;;9.21;76.71;92170.22;5098365;28;20142;-57
2022/04/08 00:23:48;;;;;;;2.92;2.22;;;;;;;9.23;76.53;92167.63;5098556;28;20031;-58
2022/04/08 00:26:14;;;;;;;3.03;2.33;;;;;;;9.31;75.63;92168.28;5109710;28;20024;-58
2022/04/08 00:28:39;;;;;;;2.88;1.83;;;;;;;9.31;75.91;92171.75;5110419;28;20020;-57
2022/04/08 00:31:05;;;;;;;3.65;2.35;;;;;;;9.26;75.81;92164.47;5104249;28;20054;-58
2022/04/08 00:33:32;;;;;;;5.85;2.40;;;;;;;9.20;76.12;92152.25;5090294;28;20069;-59
2022/04/08 00:35:57;;;;;;;2.10;1.80;;;;;;;9.23;76.16;92157.34;5089853;28;20035;-59
2022/04/08 00:38:23;;;;;;;6.15;2.40;;;;;;;9.12;76.35;92166.84;5090135;28;20020;-58
2022/04/08 00:40:48;;;;;;;5.22;2.28;;;;;;;9.15;75.98;92171.22;5097494;28;20027;-60
2022/04/08 00:43:15;;;;;;;3.97;2.40;;;;;;;9.11;76.16;92170.19;5110736;28;20023;-59
2022/04/08 00:45:41;;;;;;;3.75;2.15;;;;;;;9.09;76.00;92170.75;5114426;28;20511;-59
2022/04/08 00:48:07;;;;;;;3.95;2.30;;;;;;;9.13;75.82;92176.59;5114361;28;20020;-59
2022/04/08 00:50:43;;;;;;;4.32;2.15;;;;;;;9.14;75.60;92182.78;5114412;28;20074;-59
2022/04/08 00:53:09;;;;;;;3.38;2.08;;;;;;;9.16;75.75;92183.69;5114081;28;20075;-59
2022/04/08 00:55:35;;;;;;;2.97;1.98;;;;;;;9.11;75.75;92184.69;5114232;28;20445;-60
2022/04/08 00:58:02;;;;;;;2.53;2.33;;;;;;;9.08;75.82;92191.31;5105605;28;20020;-58
2022/04/08 01:00:32;;;;;;;2.28;2.08;;;;;;;9.08;76.07;92202.34;5093385;28;20517;-59
2022/04/08 01:02:57;;;;;;;2.95;2.05;;;;;;;9.04;76.20;92190.28;5093551;28;20028;-59
2022/04/08 01:05:23;;;;;;;3.97;2.63;;;;;;;9.04;75.75;92182.75;5087963;28;20047;-59
2022/04/08 01:07:48;;;;;;;4.00;2.03;;;;;;;9.10;75.87;92188.00;5073131;28;20032;-49
2022/04/08 01:10:13;;;;;;;2.55;1.90;;;;;;;9.10;75.40;92185.25;5087201;28;20035;-52
2022/04/08 01:12:39;;;;;;;5.45;3.17;;;;;;;9.11;75.43;92192.94;5093228;28;20058;-50
2022/04/08 01:15:05;;;;;;;4.07;2.70;;;;;;;9.10;75.23;92183.22;5093305;28;20032;-49
2022/04/08 01:17:31;;;;;;;4.38;2.53;;;;;;;9.09;75.72;92192.06;5093584;28;20028;-49
2022/04/08 01:19:56;;;;;;;3.28;2.15;;;;;;;9.02;75.79;92185.34;5093395;28;20031;-54
2022/04/08 01:22:23;;;;;;;2.95;2.65;;;;;;;9.03;76.26;92186.06;5093168;28;20027;-49
2022/04/08 01:24:51;;;;;;;2.22;1.90;;;;;;;9.01;75.90;92194.88;5093434;28;20069;-51
2022/04/08 01:27:19;;;;;;;3.50;1.95;;;;;;;9.02;75.92;92190.84;5093302;28;20020;-49
2022/04/08 01:29:45;;;;;;;4.72;2.30;;;;;;;9.03;76.30;92194.34;5093299;28;20488;-50
2022/04/08 01:32:10;;;;;;;4.43;2.35;;;;;;;9.04;76.18;92191.00;5092847;28;20111;-51
2022/04/08 01:34:36;;;;;;;2.22;2.03;;;;;;;9.02;76.16;92199.09;5093171;28;20020;-52
2022/04/08 01:37:02;;;;;;;2.50;2.30;;;;;;;9.04;75.67;92196.50;5093190;28;20023;-50
2022/04/08 01:39:27;;;;;;;2.60;2.05;;;;;;;9.04;75.75;92196.50;5092852;28;20027;-50
2022/04/08 01:41:52;;;;;;;4.00;2.05;;;;;;;8.82;75.56;92175.47;5092637;28;20148;-51
2022/04/08 01:44:18;;;;;;;2.25;1.70;;;;;;;9.01;75.48;92202.41;5076037;28;20028;-51
2022/04/08 01:46:43;;;;;;;4.75;2.05;;;;;;;9.03;74.96;92211.56;5072809;28;20056;-50
2022/04/08 01:49:09;;;;;;;3.05;1.75;;;;;;;9.04;75.01;92213.03;5072663;28;20464;-49
2022/04/08 01:51:34;;;;;;;3.20;1.90;;;;;;;9.04;75.02;92221.28;5072244;28;20036;-49
2022/04/08 01:53:59;;;;;;;3.22;1.63;;;;;;;9.05;75.11;92217.22;5072611;28;20035;-51
2022/04/08 01:56:25;;;;;;;2.65;1.90;;;;;;;9.00;75.13;92225.75;5071840;28;20033;-50
2022/04/08 01:58:50;;;;;;;4.07;2.42;;;;;;;9.03;75.09;92211.56;5085275;28;20481;-48
2022/04/08 02:01:16;;;;;;;5.90;2.47;;;;;;;9.03;74.51;92216.38;5092679;28;20024;-49
2022/04/08 02:03:41;;;;;;;6.13;2.17;;;;;;;8.93;75.08;92221.78;5092702;28;20034;-50
2022/04/08 02:06:07;;;;;;;2.63;1.55;;;;;;;8.91;75.04;92226.41;5080594;28;20028;-48
2022/04/08 02:08:32;;;;;;;2.22;2.03;;;;;;;8.90;74.99;92239.41;5072384;28;20097;-48
2022/04/08 02:10:59;;;;;;;3.08;2.13;;;;;;;8.90;74.10;92216.69;5072236;28;20477;-47
2022/04/08 02:13:24;;;;;;;2.45;1.88;;;;;;;8.88;74.48;92222.03;5071884;28;20028;-50
2022/04/08 02:15:50;;;;;;;2.63;1.50;;;;;;;8.94;74.01;92228.03;5071859;28;20032;-49
2022/04/08 02:18:15;;;;;;;2.70;1.88;;;;;;;8.86;74.33;92230.09;5071732;28;20157;-48
2022/04/08 02:20:41;;;;;;;3.22;2.10;;;;;;;8.58;74.62;92190.06;5071860;28;20070;-50
2022/04/08 02:23:07;;;;;;;1.98;1.77;;;;;;;8.74;74.26;92223.66;5071737;28;20058;-49
2022/04/08 02:25:32;;;;;;;1.65;1.55;;;;;;;8.71;74.63;92233.75;5072009;28;20525;-51
2022/04/08 02:27:58;;;;;;;2.20;1.85;;;;;;;8.52;75.07;92216.34;5070386;28;20024;-50
2022/04/08 02:30:24;;;;;;;2.97;2.35;;;;;;;8.65;74.93;92238.78;5070566;28;20025;-48
2022/04/08 02:32:50;;;;;;;2.78;2.30;;;;;;;8.59;74.67;92235.53;5071877;28;20442;-47
2022/04/08 02:35:16;;;;;;;3.30;1.92;;;;;;;8.61;74.82;92232.94;5071401;28;20028;-47
2022/04/08 02:37:41;;;;;;;2.55;2.03;;;;;;;8.62;74.66;92237.16;5071500;28;20141;-48
2022/04/08 02:40:07;;;;;;;3.75;1.90;;;;;;;8.60;74.65;92236.28;5071258;28;20063;-47
2022/04/08 02:42:33;;;;;;;5.32;2.17;;;;;;;8.49;74.84;92231.94;5071648;28;20108;-47
2022/04/08 02:44:58;;;;;;;5.03;2.33;;;;;;;8.52;75.05;92232.84;5071598;28;20461;-47
2022/04/08 02:47:24;;;;;;;2.28;2.05;;;;;;;8.50;74.95;92244.41;5071165;28;20016;-46
2022/04/08 02:49:49;;;;;;;1.95;1.75;;;;;;;8.46;75.27;92248.88;5071467;28;20028;-44
2022/04/08 02:52:15;;;;;;;1.80;1.70;;;;;;;8.50;74.60;92255.44;5071246;28;20098;-47
2022/04/08 02:54:40;;;;;;;3.15;2.10;;;;;;;8.49;74.42;92267.72;5071154;28;20035;-46
2022/04/08 02:57:06;;;;;;;2.15;1.92;;;;;;;8.45;74.39;92269.41;5071040;28;20036;-46
2022/04/08 02:59:31;;;;;;;2.22;2.03;;;;;;;8.44;74.69;92268.69;5070528;28;20080;-48
2022/04/08 03:01:57;;;;;;;2.50;2.05;;;;;;;8.39;74.92;92272.38;5071103;28;20031;-46
2022/04/08 03:04:23;;;;;;;2.63;2.22;;;;;;;8.40;74.90;92279.38;5071212;28;20485;-47
2022/04/08 03:06:48;;;;;;;3.20;1.83;;;;;;;8.36;74.34;92284.50;5087177;28;20060;-46
2022/04/08 03:09:14;;;;;;;1.90;1.60;;;;;;;8.35;74.66;92291.31;5090605;28;20069;-45
2022/04/08 03:11:39;;;;;;;2.10;1.90;;;;;;;8.24;75.08;92288.97;5090289;28;20489;-46
2022/04/08 03:14:05;;;;;;;6.47;1.92;;;;;;;8.28;74.54;92298.31;5090925;28;20032;-46
2022/04/08 03:16:31;;;;;;;2.30;1.80;;;;;;;8.36;73.51;92290.00;5091351;28;20024;-47
2022/04/08 03:18:57;;;;;;;3.22;2.05;;;;;;;8.33;73.49;92302.16;5091299;28;20032;-46
2022/04/08 03:21:22;;;;;;;2.83;1.90;;;;;;;8.11;72.97;92267.28;5091274;28;20405;-47
2022/04/08 03:23:48;;;;;;;4.00;2.00;;;;;;;8.36;72.86;92304.50;5090872;28;20024;-47
2022/04/08 03:26:14;;;;;;;2.58;1.65;;;;;;;8.32;73.46;92311.69;5090828;28;20432;-47
2022/04/08 03:28:39;;;;;;;3.70;2.42;;;;;;;8.31;73.03;92312.97;5091143;28;20024;-48
2022/04/08 03:31:05;;;;;;;1.75;1.65;;;;;;;8.33;72.54;92318.66;5081085;28;20468;-47
2022/04/08 03:33:30;;;;;;;3.60;1.83;;;;;;;8.28;72.77;92316.84;5070519;28;20036;-48
2022/04/08 03:35:56;;;;;;;1.88;1.60;;;;;;;8.19;73.15;92317.41;5070258;28;20035;-51
2022/04/08 03:38:21;;;;;;;2.53;1.77;;;;;;;8.20;72.83;92327.88;5070611;28;20036;-49
2022/04/08 03:40:49;;;;;;;2.15;1.52;;;;;;;8.22;72.40;92327.31;5070320;28;20051;-48
2022/04/08 03:43:15;;;;;;;2.40;1.70;;;;;;;8.20;72.86;92340.91;5070573;28;20059;-50
2022/04/08 03:45:40;;;;;;;1.67;1.58;;;;;;;8.13;71.90;92333.41;5070670;28;20426;-48
2022/04/08 03:48:09;;;;;;;2.65;1.50;;;;;;;8.12;72.82;92346.44;5070106;28;20512;-48
2022/04/08 03:50:35;;;;;;;4.43;1.58;;;;;;;8.11;72.57;92339.47;5070321;28;20020;-49
2022/04/08 03:53:01;;;;;;;1.55;1.40;;;;;;;8.11;72.17;92349.75;5070501;28;20051;-48
2022/04/08 03:55:26;;;;;;;2.90;1.38;;;;;;;7.99;70.87;92335.69;5070119;28;20112;-49
2022/04/08 03:57:51;;;;;;;1.95;1.52;;;;;;;8.16;71.63;92357.78;5070194;28;20048;-51
2022/04/08 04:00:17;;;;;;;1.70;1.60;;;;;;;8.15;71.44;92359.06;5069867;28;20131;-51
2022/04/08 04:02:42;;;;;;;4.05;2.13;;;;;;;8.15;70.94;92366.56;5084240;28;20020;-50
2022/04/08 04:05:09;;;;;;;2.25;1.70;;;;;;;8.09;71.76;92372.31;5085642;28;20024;-45
2022/04/08 04:07:34;;;;;;;1.50;1.40;;;;;;;8.14;71.46;92378.88;5070326;28;20094;-51
2022/04/08 04:10:00;;;;;;;3.08;1.70;;;;;;;8.18;70.70;92379.94;5070297;28;20063;-50
2022/04/08 04:12:29;;;;;;;1.33;1.23;;;;;;;8.15;71.36;92383.06;5070159;28;20513;-53
2022/04/08 04:14:55;;;;;;;5.38;1.65;;;;;;;8.20;70.56;92382.13;5070265;28;20032;-53
2022/04/08 04:17:21;;;;;;;3.67;1.88;;;;;;;8.18;71.18;92392.97;5069919;28;20035;-52
2022/04/08 04:19:47;;;;;;;4.28;2.50;;;;;;;8.19;71.27;92394.41;5072786;28;20029;-61
2022/04/08 04:22:12;;;;;;;2.58;1.88;;;;;;;8.16;71.00;92393.53;5073994;28;20115;-61
2022/04/08 04:24:38;;;;;;;2.50;1.52;;;;;;;8.25;70.84;92395.69;5073798;28;20020;-60
2022/04/08 04:27:04;;;;;;;3.47;2.80;;;;;;;8.25;70.67;92403.94;5074327;28;20066;-60
2022/04/08 04:29:29;;;;;;;3.88;3.40;;;;;;;8.31;69.99;92412.72;5073872;28;20082;-54
2022/04/08 04:31:56;;;;;;;3.85;2.10;;;;;;;8.31;69.52;92406.47;5073787;28;20032;-53
2022/04/08 04:34:24;;;;;;;2.50;2.03;;;;;;;8.34;69.78;92416.34;5074217;28;20556;-56
2022/04/08 04:36:49;;;;;;;2.07;1.90;;;;;;;8.39;69.47;92415.41;5073871;28;20036;-57
2022/04/08 04:39:15;;;;;;;3.15;1.95;;;;;;;8.39;69.41;92420.91;5073631;28;20036;-54
2022/04/08 04:41:40;;;;;;;2.65;1.80;;;;;;;8.47;69.06;92415.38;5073648;28;20029;-55
2022/04/08 04:44:06;;;;;;;2.42;1.90;;;;;;;8.49;69.16;92424.50;5073529;28;20024;-57
2022/04/08 04:46:32;;;;;;;3.13;2.08;;;;;;;8.58;68.63;92426.66;5073617;28;20063;-57
2022/04/08 04:48:57;;;;;;;3.05;1.65;;;;;;;8.59;68.05;92416.38;5072328;28;20021;-57
2022/04/08 04:51:23;;;;;;;2.38;2.03;;;;;;;8.70;68.13;92441.44;5073421;28;20031;-58
2022/04/08 04:53:49;;;;;;;2.35;1.85;;;;;;;8.78;68.05;92435.88;5073515;28;20029;-54
2022/04/08 04:56:14;;;;;;;1.48;1.38;;;;;;;8.75;67.67;92445.25;5073263;28;20055;-47
2022/04/08 04:58:40;;;;;;;1.95;1.70;;;;;;;8.95;67.79;92446.94;5073229;28;20032;-48
2022/04/08 05:01:05;;;;;;;5.95;4.10;;;;;;;9.10;65.50;92461.31;5073273;28;20086;-51
2022/04/08 05:03:30;;;;;;;7.18;6.32;;;;;;;9.13;66.74;92454.69;5073452;28;20034;-48
2022/04/08 05:05:56;;;;;;;7.25;4.93;;;;;;;9.20;66.70;92461.44;5083242;28;20060;-48
2022/04/08 05:08:21;;;;;;;3.40;1.98;;;;;;;9.22;66.49;92475.38;5087326;28;20047;-51
2022/04/08 05:10:47;;;;;;;4.85;3.33;;;;;;;9.39;64.92;92477.41;5081236;28;20060;-51
2022/04/08 05:13:13;;;;;;;6.15;3.22;;;;;;;9.45;65.07;92488.94;5086793;28;20464;-46
2022/04/08 05:15:42;;;;;;;4.55;2.70;;;;;;;9.52;64.41;92490.91;5081021;28;20150;-48
2022/04/08 05:18:11;;;;;;;3.70;2.65;;;;;;;9.43;65.21;92483.25;5083876;28;20028;-49
2022/04/08 05:20:37;;;;;;;;;;;;;;;9.43;65.33;92483.25;5084925;28;20034;-51
2022/04/08 05:23:02;;;;;;;3.53;2.05;;;;;;;9.43;64.31;92492.25;5086251;28;20003;-50
2022/04/08 05:25:27;;;;;;;5.50;2.08;;;;;;;9.41;65.34;92492.09;5082525;28;20035;-47
2022/04/08 05:27:53;;;;;;;4.07;1.90;;;;;;;9.45;63.90;92499.94;5079239;28;20020;-47
2022/04/08 05:30:19;;;;;;;3.58;2.15;;;;;;;9.52;64.09;92505.41;5083376;28;20028;-47
2022/04/08 05:32:46;;;;;;;7.35;1.70;;;;;;;9.57;63.72;92503.72;5079444;28;20020;-48
2022/04/08 05:35:14;;;;;;;3.53;1.50;;;;;;;9.72;63.08;92509.78;5082035;28;20019;-47
2022/04/08 05:37:42;;;;;;;2.63;1.45;;;;;;;10.05;62.65;92495.88;5082117;28;20016;-47
2022/04/08 05:40:18;;;;;;;2.13;1.20;;;;;;;10.68;61.10;92516.09;5081082;28;20052;-48
2022/04/08 05:42:45;;;;;;;1.98;1.52;;;;;;;11.36;58.44;92504.09;5086327;28;20110;-49
2022/04/08 05:45:12;;;;;;;1.30;1.20;;;;;;;11.70;56.91;92503.91;5082729;28;20107;-48
2022/04/08 05:47:38;;;;;;;4.05;1.75;;;;;;;11.79;56.29;92514.28;5088158;28;20031;-47
2022/04/08 05:50:04;;;;;;;1.55;1.30;;;;;;;11.77;57.76;92510.63;5075106;28;20027;-48
2022/04/08 05:52:30;;;;;;;5.03;1.63;;;;;;;11.78;56.65;92521.09;5086700;28;20036;-48
2022/04/08 05:54:55;;;;;;;4.68;1.48;;;;;;;11.81;56.41;92514.41;5082351;28;20035;-45
2022/04/08 05:57:21;;;;;;;2.22;1.55;;;;;;;11.83;56.26;92514.56;5084860;28;20019;-46
2022/04/08 05:59:47;;;;;;;4.47;1.33;;;;;;;11.88;56.29;92524.63;5080073;28;20044;-48
2022/04/08 06:02:13;;;;;;;2.85;1.40;;;;;;;11.86;56.22;92537.56;5085238;28;20013;-50
2022/04/08 06:04:39;;;;;;;2.05;1.10;;;;;;;12.01;55.55;92543.59;5083781;28;20024;-49
2022/04/08 06:07:04;;;;;;;4.93;1.80;;;;;;;12.08;55.04;92539.94;5079401;28;20032;-47
2022/04/08 06:09:30;;;;;;;2.63;1.40;;;;;;;12.35;54.51;92548.13;5080607;28;20080;-47
2022/04/08 06:11:55;;;;;;;3.72;1.40;;;;;;;12.74;53.77;92551.63;5073481;28;20056;-46
2022/04/08 06:14:21;;;;;;;3.10;1.10;;;;;;;13.30;51.97;92550.06;5075563;28;20016;-48
2022/04/08 06:16:46;;;;;;;2.13;0.90;;;;;;;14.23;49.74;92540.44;5084448;28;20034;-45
2022/04/08 06:19:12;;;;;;;1.20;1.10;;;;;;;15.03;47.43;92547.72;5091262;28;20031;-45
2022/04/08 06:21:37;;;;;;;1.63;1.20;;;;;;;16.32;44.25;92535.38;5091244;28;20015;-46
2022/04/08 06:24:03;;;;;;;2.78;1.77;;;;;;;17.15;42.78;92538.75;5090790;28;20024;-46
2022/04/08 06:26:28;;;;;;;2.92;1.83;;;;;;;17.94;40.05;92527.00;5091133;28;20158;-47
2022/04/08 06:28:54;;;;;;;2.47;0.95;;;;;;;18.82;37.70;92518.84;5091041;28;20481;-49
2022/04/08 06:31:19;;;;;;;1.30;1.10;;;;;;;19.24;36.08;92514.56;5090271;28;20443;-47
2022/04/08 06:33:45;;;;;;;2.15;1.10;;;;;;;19.51;35.76;92509.59;5090725;28;20042;-47
2022/04/08 06:36:10;;;;;;;1.67;1.25;;;;;;;19.85;35.06;92509.72;5090254;28;20053;-46
2022/04/08 06:38:36;;;;;;;1.27;0.98;;;;;;;20.17;35.21;92516.75;5090328;28;20020;-48
2022/04/08 06:41:01;;;;;;;3.20;1.45;;;;;;;20.24;35.35;92526.91;5090334;28;20024;-46
2022/04/08 06:43:27;;;;;;;3.25;1.38;;;;;;;20.18;35.47;92532.22;5089936;28;20067;-50
2022/04/08 06:45:52;;;;;;;2.17;1.17;;;;;;;20.77;34.29;92533.38;5090150;28;20106;-46
2022/04/08 06:48:18;;;;;;;8.35;2.20;;;;;;;20.90;34.15;92546.56;5090186;28;20039;-45
2022/04/08 06:50:43;;;;;;;1.08;0.98;;;;;;;20.76;32.99;92543.19;5107859;28;20122;-46
2022/04/08 06:53:09;;;;;;;5.88;1.50;;;;;;;20.50;34.62;92544.13;5098658;28;20072;-45
2022/04/08 06:55:34;;;;;;;1.75;1.30;;;;;;;19.75;34.46;92523.28;5107591;28;20023;-49
2022/04/08 06:58:02;;;;;;;3.10;1.50;;;;;;;20.55;33.27;92540.88;5103747;28;20050;-45
2022/04/08 07:00:28;;;;;;;2.65;1.10;;;;;;;20.46;33.17;92543.97;5101192;28;20052;-45
2022/04/08 07:02:54;;;;;;;1.83;1.27;;;;;;;20.78;33.91;92551.69;5090117;28;20097;-48
2022/04/08 07:05:20;;;;;;;2.40;1.20;;;;;;;20.72;32.82;92545.09;5089753;28;20073;-48
2022/04/08 07:07:45;;;;;;;2.67;1.30;;;;;;;20.59;32.95;92531.91;5090059;28;20032;-47
2022/04/08 07:10:11;;;;;;;1.95;1.23;;;;;;;20.82;32.70;92546.22;5090023;28;20070;-48
2022/04/08 07:12:37;;;;;;;1.40;1.30;;;;;;;21.18;31.99;92544.22;5090099;28;20028;-46
2022/04/08 07:15:04;;;;;;;1.77;1.23;;;;;;;21.42;31.08;92538.88;5090210;28;20106;-46
2022/04/08 07:17:34;;;;;;;3.17;1.30;;;;;;;22.27;29.83;92537.94;5089994;28;20042;-47
2022/04/08 07:20:00;;;;;;;2.42;2.22;;;;;;;22.47;29.82;92541.47;5082282;28;20032;-47
2022/04/08 07:22:26;;;;;;;3.20;2.05;;;;;;;22.65;29.94;92537.88;5069509;28;20040;-46
2022/04/08 07:24:52;;;;;;;2.92;1.83;;;;;;;23.20;27.80;92543.97;5069310;28;20024;-46
2022/04/08 07:27:18;;;;;;;1.40;1.30;;;;;;;23.12;27.87;92532.47;5069639;28;20028;-48
2022/04/08 07:29:45;;;;;;;2.50;1.30;;;;;;;23.97;27.35;92550.00;5069336;28;20036;-47
2022/04/08 07:32:10;;;;;;;1.60;1.20;;;;;;;24.06;26.65;92554.53;5067762;28;20579;-46
2022/04/08 07:34:36;;;;;;;3.88;1.27;;;;;;;24.83;25.78;92548.97;5068334;28;20113;-50
2022/04/08 07:37:02;;;;;;;3.40;0.80;;;;;;;25.05;26.03;92552.41;5104966;28;20023;-46
2022/04/08 07:39:28;;;;;;;2.60;0.77;;;;;;;25.70;24.58;92566.09;5103758;28;20035;-46
2022/04/08 07:41:53;;;;;;;1.77;0.90;;;;;;;26.03;23.92;92578.88;5102302;28;20016;-47
2022/04/08 07:44:19;;;;;;;3.22;0.90;;;;;;;26.69;24.46;92583.19;5105543;28;20019;-46
2022/04/08 07:46:44;;;;;;;1.20;0.80;;;;;;;26.56;23.19;92589.97;5108100;28;20020;-47
2022/04/08 07:49:09;;;;;;;1.48;0.95;;;;;;;26.54;24.56;92587.09;5108311;28;20030;-46
2022/04/08 07:51:35;;;;;;;3.33;0.90;;;;;;;26.80;23.28;92581.28;5091813;28;20550;-48
2022/04/08 07:54:00;;;;;;;0.90;0.85;;;;;;;27.04;23.60;92582.50;5086045;28;20028;-47
2022/04/08 07:56:26;;;;;;;3.22;1.20;;;;;;;27.44;23.10;92585.38;5085959;28;20086;-45
2022/04/08 07:58:51;;;;;;;2.15;1.08;;;;;;;27.46;23.80;92587.53;5085082;28;20058;-46
2022/04/08 08:01:17;;;;;;;8.30;3.35;;;;;;;28.03;22.16;92581.41;5085011;28;20020;-46
2022/04/08 08:03:45;;;;;;;1.48;0.98;;;;;;;28.52;21.73;92577.19;5069534;28;20028;-47
2022/04/08 08:06:11;;;;;;;7.83;1.70;;;;;;;28.91;20.50;92581.25;5077770;28;20112;-45
2022/04/08 08:08:37;;;;;;;4.88;1.63;;;;;;;28.53;20.83;92593.53;5088183;28;21012;-45
2022/04/08 08:11:06;;;;;;;1.13;1.02;;;;;;;28.91;20.44;92584.78;5088413;28;20028;-46
2022/04/08 08:13:32;;;;;;;4.97;1.17;;;;;;;29.54;19.76;92586.22;5088459;28;20054;-47
2022/04/08 08:15:57;;;;;;;3.40;1.27;;;;;;;29.19;20.08;92593.69;5089049;28;20481;-45
2022/04/08 08:18:24;;;;;;;1.50;1.17;;;;;;;29.54;19.81;92602.59;5074847;28;20743;-45
2022/04/08 08:20:50;;;;;;;5.28;1.38;;;;;;;29.49;20.60;92596.16;5068706;28;20025;-44
2022/04/08 08:23:15;;;;;;;5.60;1.40;;;;;;;29.52;19.77;92597.59;5068675;28;20040;-45
2022/04/08 08:25:42;;;;;;;1.63;1.20;;;;;;;30.37;18.92;92596.25;5068789;28;20425;-45
2022/04/08 08:28:08;;;;;;;1.67;1.20;;;;;;;29.85;19.02;92602.22;5068609;28;20040;-45
2022/04/08 08:30:34;;;;;;;2.45;1.58;;;;;;;28.94;19.79;92605.44;5068730;28;20024;-47
2022/04/08 08:33:00;;;;;;;1.50;1.40;;;;;;;28.86;20.78;92608.91;5068689;28;20170;-45
2022/04/08 08:35:26;;;;;;;2.63;1.05;;;;;;;28.72;20.00;92619.38;5069054;28;20115;-47
2022/04/08 08:37:52;;;;;;;1.52;1.00;;;;;;;28.22;19.54;92614.34;5068822;28;20494;-45
2022/04/08 08:40:18;;;;;;;1.98;1.25;;;;;;;27.88;20.78;92633.66;5068469;28;20033;-46
2022/04/08 08:42:44;;;;;;;3.95;1.50;;;;;;;27.78;21.26;92637.03;5068660;28;20017;-44
2022/04/08 08:45:11;;;;;;;1.35;1.25;;;;;;;28.67;19.86;92632.81;5068441;28;20032;-44
2022/04/08 08:47:37;;;;;;;5.55;1.38;;;;;;;28.90;19.60;92628.13;5081812;28;20120;-48
2022/04/08 08:50:04;;;;;;;1.00;1.00;;;;;;;29.03;19.02;92627.59;5088753;28;20103;-46
2022/04/08 08:52:31;;;;;;;2.17;1.23;;;;;;;29.23;19.57;92639.25;5088966;28;20032;-45
2022/04/08 08:54:57;;;;;;;1.00;0.90;;;;;;;29.80;20.25;92640.56;5088966;28;20031;-44
2022/04/08 08:57:23;;;;;;;2.15;1.13;;;;;;;29.22;20.21;92652.00;5088718;28;20032;-44
2022/04/08 08:59:52;;;;;;;1.15;0.90;;;;;;;29.92;19.41;92646.41;5088394;28;20076;-45
2022/04/08 09:02:20;;;;;;;4.57;2.40;;;;;;;29.82;19.75;92642.75;5088554;28;20020;-48
2022/04/08 09:04:46;;;;;;;3.43;1.10;;;;;;;29.59;19.15;92635.34;5089336;28;20079;-45
2022/04/08 09:07:23;;;;;;;1.00;0.90;;;;;;;29.35;20.00;92650.03;5071966;28;20437;-46
2022/04/08 09:09:54;;;;;;;2.78;1.17;;;;;;;29.92;18.71;92646.41;5071895;28;20024;-46
2022/04/08 09:12:22;;;;;;;1.98;1.10;;;;;;;29.88;19.36;92649.22;5072130;28;20028;-45
2022/04/08 09:14:55;;;;;;;4.75;1.73;;;;;;;29.77;19.32;92636.28;5071778;28;20089;-46
2022/04/08 09:17:23;;;;;;;2.17;1.58;;;;;;;29.19;20.05;92641.31;5071718;28;20056;-46
2022/04/08 09:19:56;;;;;;;3.17;1.27;;;;;;;29.68;19.84;92643.28;5071940;28;20028;-45
2022/04/08 09:22:26;;;;;;;1.33;1.23;;;;;;;29.63;20.15;92633.25;5072107;28;20020;-45
2022/04/08 09:24:52;;;;;;;3.30;2.00;;;;;;;29.92;19.15;92646.41;5077841;28;20107;-43
2022/04/08 09:27:17;;;;;;;1.83;1.10;;;;;;;29.91;19.49;92647.06;5091538;28;20062;-44
2022/04/08 09:29:44;;;;;;;2.90;1.48;;;;;;;29.93;20.13;92647.81;5093969;28;20089;-46
2022/04/08 09:32:15;;;;;;;3.20;1.40;;;;;;;30.50;19.74;92636.91;5091915;28;20055;-44
2022/04/08 09:34:41;;;;;;;1.95;1.13;;;;;;;30.23;18.64;92627.44;5097024;28;20040;-48
2022/04/08 09:37:15;;;;;;;1.30;1.05;;;;;;;28.89;20.37;92638.75;5094327;28;20024;-46
2022/04/08 09:40:05;;;;;;;1.70;1.13;;;;;;;28.76;19.53;92642.16;5083655;28;20094;-46
2022/04/08 09:42:50;;;;;;;1.98;1.10;;;;;;;27.30;21.54;92638.97;5087298;28;20020;-48
2022/04/08 09:45:27;;;;;;;1.30;1.20;;;;;;;27.83;21.46;92646.31;5081680;28;20044;-46
2022/04/08 09:47:52;;;;;;;3.40;1.15;;;;;;;28.57;21.14;92637.59;5078365;28;20056;-47
2022/04/08 09:50:17;;;;;;;1.85;1.23;;;;;;;29.18;20.25;92637.75;5080376;28;20034;-43
2022/04/08 09:52:44;;;;;;;1.20;1.10;;;;;;;29.32;20.42;92627.97;5078909;28;20024;-47
2022/04/08 09:55:10;;;;;;;3.40;1.20;;;;;;;29.34;20.02;92625.84;5078581;28;20059;-46
2022/04/08 09:57:37;;;;;;;2.05;1.33;;;;;;;30.42;18.80;92628.31;5081504;28;20085;-46
2022/04/08 10:00:04;;;;;;;3.53;1.50;;;;;;;30.42;20.37;92625.47;5077518;28;20037;-44
2022/04/08 10:02:33;;;;;;;4.03;1.98;;;;;;;30.27;19.28;92635.31;5081070;28;20073;-48
2022/04/08 10:04:59;;;;;;;1.35;1.20;;;;;;;29.56;19.82;92591.94;5081078;28;20104;-49
2022/04/08 10:07:25;;;;;;;3.05;1.42;;;;;;;30.61;18.78;92621.31;5081684;28;20099;-45
2022/04/08 10:10:01;;;;;;;2.22;1.20;;;;;;;30.64;19.61;92629.19;5079228;28;20549;-48
2022/04/08 10:12:54;;;;;;;1.42;1.05;;;;;;;30.13;19.11;92635.16;5080939;28;20050;-48
2022/04/08 10:15:28;;;;;;;3.33;1.40;;;;;;;30.30;19.28;92636.75;5080248;28;20052;-46
2022/04/08 10:17:58;;;;;;;2.00;1.80;;;;;;;30.19;19.02;92649.47;5078883;28;20107;-46
2022/04/08 10:20:25;;;;;;;2.25;1.30;;;;;;;30.23;19.12;92644.53;5084315;28;20028;-50
2022/04/08 10:22:54;;;;;;;2.85;1.25;;;;;;;30.64;19.50;92645.56;5079288;28;20019;-51
2022/04/08 10:25:22;;;;;;;1.38;1.15;;;;;;;30.55;18.81;92641.25;5080676;28;20016;-52
2022/04/08 10:27:59;;;;;;;2.42;1.05;;;;;;;30.75;19.10;92638.53;5081168;28;20020;-52
2022/04/08 10:30:24;;;;;;;1.20;1.10;;;;;;;30.70;18.35;92634.22;5081524;28;20016;-53
2022/04/08 10:33:00;;;;;;;4.32;1.50;;;;;;;31.08;18.64;92630.91;5080743;28;20228;-51
2022/04/08 10:35:26;;;;;;;1.67;1.05;;;;;;;31.28;17.65;92643.09;5081570;28;20063;-50
2022/04/08 10:38:03;;;;;;;2.10;1.08;;;;;;;30.82;18.74;92647.81;5080473;28;20498;-51
2022/04/08 10:40:37;;;;;;;1.70;1.05;;;;;;;30.68;19.75;92631.34;5081824;28;20070;-52
2022/04/08 10:43:05;;;;;;;3.45;1.55;;;;;;;30.88;18.30;92634.34;5080722;28;20027;-53
2022/04/08 10:45:31;;;;;;;2.08;1.08;;;;;;;30.80;18.29;92613.63;5079078;28;20035;-50
2022/04/08 10:48:09;;;;;;;3.53;1.90;;;;;;;30.46;18.71;92622.66;5082206;28;20032;-49
2022/04/08 10:50:35;;;;;;;4.50;1.35;;;;;;;30.44;17.58;92614.81;5081815;28;20028;-53
2022/04/08 10:53:10;;;;;;;1.02;0.98;;;;;;;30.26;18.95;92626.03;5079090;28;20031;-49
2022/04/08 10:55:48;;;;;;;4.72;1.65;;;;;;;30.27;19.05;92616.09;5071339;28;20060;-45
2022/04/08 10:58:15;;;;;;;3.05;1.00;;;;;;;30.25;19.20;92618.19;5079431;28;20028;-47
2022/04/08 11:00:41;;;;;;;2.35;0.80;;;;;;;30.37;17.97;92613.34;5091171;28;20086;-46
2022/04/08 11:03:10;;;;;;;2.97;1.35;;;;;;;30.71;18.44;92627.06;5091557;28;20044;-46
2022/04/08 11:05:38;;;;;;;5.15;0.93;;;;;;;30.20;18.55;92630.97;5084202;28;20036;-48
2022/04/08 11:08:04;;;;;;;1.27;0.70;;;;;;;30.25;18.60;92629.59;5071121;28;20050;-48
2022/04/08 11:10:31;;;;;;;1.10;0.85;;;;;;;30.02;18.78;92625.13;5071092;28;20082;-47
2022/04/08 11:12:57;;;;;;;1.52;0.98;;;;;;;29.80;18.13;92622.81;5071052;28;20024;-47
2022/04/08 11:15:24;;;;;;;2.85;1.00;;;;;;;29.33;18.75;92624.41;5071087;28;20077;-50
2022/04/08 11:17:52;;;;;;;5.03;1.23;;;;;;;28.70;18.43;92625.72;5070680;28;20081;-47
2022/04/08 11:20:21;;;;;;;2.42;1.80;;;;;;;28.77;19.79;92618.00;5070633;28;20460;-46
2022/04/08 11:22:52;;;;;;;1.52;1.30;;;;;;;28.73;18.42;92609.44;5070617;28;20028;-49
2022/04/08 11:25:22;;;;;;;1.30;1.20;;;;;;;27.76;20.27;92619.97;5070544;28;20020;-47
2022/04/08 11:28:01;;;;;;;7.20;1.10;;;;;;;27.99;19.79;92620.38;5070377;28;20044;-46
2022/04/08 11:30:29;;;;;;;2.35;1.27;;;;;;;28.05;20.77;92621.19;5070526;28;20059;-46
2022/04/08 11:32:55;;;;;;;2.95;1.10;;;;;;;27.76;20.32;92614.28;5069617;28;20055;-46
2022/04/08 11:35:20;;;;;;;1.40;1.17;;;;;;;27.66;21.75;92619.78;5074863;28;20561;-47